createdAt,value
2018-05-16T00:01:16.434Z,2.30
2018-05-16T00:03:44.820Z,2.50
2018-05-16T00:06:14.125Z,2.37
2018-05-16T00:08:42.538Z,2.20
2018-05-16T00:11:10.273Z,2.10
2018-05-16T00:13:38.666Z,2.33
2018-05-16T00:16:07.721Z,2.40
2018-05-16T00:18:35.416Z,2.77
2018-05-16T00:21:03.238Z,3.10
2018-05-16T00:23:30.853Z,2.87
2018-05-16T00:25:59.237Z,3.10
2018-05-16T00:28:28.256Z,3.30
2018-05-16T00:30:56.714Z,3.40
2018-05-16T00:33:24.551Z,3.27
2018-05-16T00:35:53.077Z,3.27
2018-05-16T00:38:20.716Z,3.60
2018-05-16T00:40:49.054Z,3.87
2018-05-16T00:43:16.767Z,4.10
2018-05-16T00:45:44.525Z,4.10
2018-05-16T00:48:12.159Z,4.43
2018-05-16T00:50:40.143Z,4.80
2018-05-16T00:53:07.925Z,4.80
2018-05-16T00:55:36.606Z,5.10
2018-05-16T00:58:04.282Z,4.90
2018-05-16T01:00:31.992Z,5.77
2018-05-16T01:03:00.467Z,4.70
2018-05-16T01:05:28.085Z,4.50
2018-05-16T01:07:55.709Z,5.33
2018-05-16T01:10:23.328Z,5.60
2018-05-16T01:12:51.695Z,6.07
2018-05-16T01:15:19.314Z,5.13
2018-05-16T01:17:46.901Z,6.63
2018-05-16T01:20:14.478Z,4.70
2018-05-16T01:22:42.115Z,6.33
2018-05-16T01:25:10.497Z,6.07
2018-05-16T01:27:38.074Z,6.20
2018-05-16T01:30:06.247Z,5.53
2018-05-16T01:32:33.865Z,5.50
2018-05-16T01:35:01.805Z,6.30
2018-05-16T01:37:29.446Z,6.77
2018-05-16T01:39:57.132Z,6.93
2018-05-16T01:42:24.737Z,6.50
2018-05-16T01:44:53.213Z,7.50
2018-05-16T01:47:20.789Z,6.27
2018-05-16T01:49:49.154Z,7.17
2018-05-16T01:52:16.758Z,6.77
2018-05-16T01:54:44.384Z,6.47
2018-05-16T01:57:13.049Z,6.03
2018-05-16T01:59:40.670Z,7.33
2018-05-16T02:02:08.313Z,7.30
2018-05-16T02:04:36.193Z,7.20
2018-05-16T02:07:03.794Z,7.20
2018-05-16T02:09:31.370Z,8.03
2018-05-16T02:11:59.002Z,8.90
2018-05-16T02:14:26.598Z,7.87
2018-05-16T02:16:54.231Z,8.40
2018-05-16T02:19:21.817Z,9.27
2018-05-16T02:21:49.711Z,9.73
2018-05-16T02:24:18.641Z,9.90
2018-05-16T02:26:46.304Z,10.17
2018-05-16T02:29:13.935Z,10.80
2018-05-16T02:31:42.285Z,9.93
2018-05-16T02:34:09.910Z,9.57
2018-05-16T02:36:37.522Z,10.30
2018-05-16T02:39:05.938Z,10.20
2018-05-16T02:41:33.553Z,11.10
2018-05-16T02:44:01.174Z,10.23
2018-05-16T02:46:29.590Z,9.83
2018-05-16T02:48:57.215Z,9.50
2018-05-16T02:51:24.802Z,10.53
2018-05-16T02:53:53.177Z,9.07
2018-05-16T02:56:20.804Z,9.47
2018-05-16T02:58:49.188Z,9.43
2018-05-16T03:01:16.787Z,9.47
2018-05-16T03:03:44.514Z,9.73
2018-05-16T03:06:12.886Z,9.17
2018-05-16T03:08:40.514Z,8.17
2018-05-16T03:11:08.098Z,9.53
2018-05-16T03:13:35.716Z,11.60
2018-05-16T03:16:03.332Z,9.23
2018-05-16T03:18:31.043Z,9.73
2018-05-16T03:20:58.659Z,10.83
2018-05-16T03:23:26.234Z,9.13
2018-05-16T03:25:54.666Z,8.80
2018-05-16T03:28:22.331Z,10.13
2018-05-16T03:30:50.064Z,9.67
2018-05-16T03:33:17.784Z,11.63
2018-05-16T03:35:46.166Z,11.07
2018-05-16T03:38:13.762Z,10.37
2018-05-16T03:40:41.385Z,9.30
2018-05-16T03:43:08.987Z,10.70
2018-05-16T03:45:36.829Z,10.30
2018-05-16T03:48:04.444Z,11.00
2018-05-16T03:50:33.279Z,9.43
2018-05-16T03:53:00.866Z,9.33
2018-05-16T03:55:28.481Z,8.70
2018-05-16T04:01:09.713Z,8.60
2018-05-16T04:03:49.032Z,10.20
2018-05-16T04:06:16.649Z,9.63
2018-05-16T04:08:44.273Z,10.57
2018-05-16T04:11:13.600Z,9.97
2018-05-16T04:13:41.323Z,11.07
2018-05-16T04:16:08.897Z,11.33
2018-05-16T04:18:36.585Z,11.27
2018-05-16T04:21:04.198Z,12.40
2018-05-16T04:23:32.537Z,10.90
2018-05-16T04:26:00.234Z,12.60
2018-05-16T04:28:27.781Z,11.03
2018-05-16T04:30:56.137Z,10.87
2018-05-16T04:33:24.681Z,12.17
2018-05-16T04:35:52.265Z,11.00
2018-05-16T04:38:19.874Z,11.30
2018-05-16T04:40:47.454Z,11.80
2018-05-16T04:43:15.869Z,10.60
2018-05-16T04:45:43.468Z,11.83
2018-05-16T04:48:11.169Z,10.33
2018-05-16T04:50:38.818Z,10.70
2018-05-16T04:53:06.399Z,10.77
2018-05-16T04:55:34.765Z,12.20
2018-05-16T04:58:02.389Z,11.93
2018-05-16T05:00:30.053Z,11.83
2018-05-16T05:02:57.729Z,11.20
2018-05-16T05:05:25.357Z,11.77
2018-05-16T05:07:53.053Z,12.17
2018-05-16T05:10:20.641Z,10.73
2018-05-16T05:12:48.769Z,11.83
2018-05-16T05:15:16.387Z,9.60
2018-05-16T05:17:44.783Z,10.70
2018-05-16T05:20:12.434Z,10.73
2018-05-16T05:22:40.053Z,11.03
2018-05-16T05:25:07.662Z,11.00
2018-05-16T05:27:36.069Z,11.03
2018-05-16T05:30:04.197Z,11.10
2018-05-16T05:32:32.793Z,11.70
2018-05-16T05:35:00.416Z,11.47
2018-05-16T05:37:28.025Z,12.00
2018-05-16T05:39:55.646Z,12.53
2018-05-16T05:42:24.125Z,12.37
2018-05-16T05:44:51.749Z,11.87
2018-05-16T05:47:19.388Z,11.20
2018-05-16T05:49:47.028Z,10.87
2018-05-16T05:52:14.636Z,11.33
2018-05-16T05:54:42.802Z,11.77
2018-05-16T05:57:10.437Z,11.37
2018-05-16T05:59:38.975Z,11.83
2018-05-16T06:02:07.731Z,12.33
2018-05-16T06:04:35.449Z,11.47
2018-05-16T06:07:03.086Z,11.43
2018-05-16T06:09:30.756Z,10.93
2018-05-16T06:12:00.353Z,11.10
2018-05-16T06:14:28.507Z,10.23
2018-05-16T06:16:56.134Z,10.33
2018-05-16T06:19:23.774Z,10.80
2018-05-16T06:21:52.134Z,11.30
2018-05-16T06:24:19.891Z,12.23
2018-05-16T06:26:47.479Z,11.20
2018-05-16T06:29:15.147Z,10.87
2018-05-16T06:31:42.781Z,10.17
2018-05-16T06:34:10.503Z,11.87
2018-05-16T06:36:38.121Z,11.20
2018-05-16T06:39:05.887Z,10.80
2018-05-16T06:41:33.477Z,11.63
2018-05-16T06:44:01.102Z,10.47
2018-05-16T06:46:28.742Z,10.93
2018-05-16T06:48:56.384Z,9.07
2018-05-16T06:51:23.970Z,10.80
2018-05-16T06:53:52.495Z,10.33
2018-05-16T06:56:20.150Z,10.00
2018-05-16T06:58:49.134Z,10.67
2018-05-16T07:01:16.761Z,9.03
2018-05-16T07:03:44.934Z,11.07
2018-05-16T07:06:14.365Z,11.37
2018-05-16T07:08:42.160Z,9.57
2018-05-16T07:11:10.842Z,10.77
2018-05-16T07:13:38.618Z,9.67
2018-05-16T07:16:06.294Z,9.67
2018-05-16T07:18:34.057Z,8.30
2018-05-16T07:21:02.159Z,10.30
2018-05-16T07:23:30.067Z,9.10
2018-05-16T07:25:59.924Z,9.57
2018-05-16T07:28:27.598Z,9.40
2018-05-16T07:30:56.015Z,10.73
2018-05-16T07:33:23.694Z,9.40
2018-05-16T07:35:51.357Z,10.20
2018-05-16T07:38:18.955Z,9.63
2018-05-16T07:40:46.565Z,9.27
2018-05-16T07:43:14.257Z,9.80
2018-05-16T07:45:42.432Z,9.97
2018-05-16T07:48:10.021Z,9.47
2018-05-16T07:50:37.650Z,10.20
2018-05-16T07:53:05.259Z,10.40
2018-05-16T07:55:32.872Z,10.70
2018-05-16T07:58:00.493Z,10.70
2018-05-16T08:00:28.138Z,12.23
2018-05-16T08:02:55.725Z,11.37
2018-05-16T08:05:24.105Z,10.57
2018-05-16T08:07:52.550Z,11.70
2018-05-16T08:10:20.126Z,11.97
2018-05-16T08:12:47.765Z,10.10
2018-05-16T08:15:15.386Z,11.87
2018-05-16T08:17:43.741Z,10.63
2018-05-16T08:20:11.320Z,11.90
2018-05-16T08:22:38.957Z,11.50
2018-05-16T08:25:06.557Z,13.10
2018-05-16T08:27:34.946Z,11.60
2018-05-16T08:30:03.337Z,11.20
2018-05-16T08:32:30.925Z,10.57
2018-05-16T08:34:58.536Z,11.53
2018-05-16T08:37:26.940Z,10.93
2018-05-16T08:39:54.547Z,12.13
2018-05-16T08:42:22.164Z,11.27
2018-05-16T08:44:49.754Z,11.60
2018-05-16T08:47:17.406Z,11.10
2018-05-16T08:49:45.025Z,11.90
2018-05-16T08:52:12.687Z,11.93
2018-05-16T08:54:40.265Z,12.17
2018-05-16T08:57:07.865Z,13.27
2018-05-16T08:59:35.489Z,12.77
2018-05-16T09:02:03.858Z,12.73
2018-05-16T09:04:31.474Z,12.00
2018-05-16T09:06:59.081Z,12.27
2018-05-16T09:09:26.678Z,12.53
2018-05-16T09:11:55.078Z,13.93
2018-05-16T09:14:22.670Z,12.97
2018-05-16T09:16:50.289Z,14.27
2018-05-16T09:19:17.876Z,13.43
2018-05-16T09:21:45.480Z,14.13
2018-05-16T09:24:13.074Z,13.17
2018-05-16T09:26:40.716Z,14.43
2018-05-16T09:29:08.309Z,13.83
2018-05-16T09:31:36.671Z,13.30
2018-05-16T09:34:04.292Z,14.40
2018-05-16T09:36:31.909Z,13.83
2018-05-16T09:39:00.286Z,13.33
2018-05-16T09:41:27.910Z,12.23
2018-05-16T09:43:55.519Z,12.40
2018-05-16T09:46:23.940Z,14.00
2018-05-16T09:48:51.545Z,12.83
2018-05-16T09:51:19.220Z,13.03
2018-05-16T09:53:46.842Z,13.00
2018-05-16T09:56:14.451Z,12.33
2018-05-16T09:58:42.800Z,12.73
2018-05-16T10:01:10.643Z,11.87
2018-05-16T10:03:38.224Z,11.53
2018-05-16T10:06:05.836Z,11.87
2018-05-16T10:08:33.536Z,11.20
2018-05-16T10:11:01.159Z,11.50
2018-05-16T10:13:29.549Z,10.47
2018-05-16T10:15:57.149Z,10.63
2018-05-16T10:18:24.759Z,10.40
2018-05-16T10:20:53.165Z,9.80
2018-05-16T10:23:20.826Z,9.53
2018-05-16T10:25:48.424Z,9.13
2018-05-16T10:28:16.026Z,9.13
2018-05-16T10:30:43.621Z,9.73
2018-05-16T10:33:11.229Z,9.70
2018-05-16T10:35:39.561Z,8.73
2018-05-16T10:38:07.914Z,9.30
2018-05-16T10:40:35.490Z,8.47
2018-05-16T10:43:03.908Z,8.60
2018-05-16T10:45:31.582Z,8.37
2018-05-16T10:47:59.186Z,7.73
2018-05-16T10:50:26.865Z,8.77
2018-05-16T10:52:54.374Z,8.23
2018-05-16T10:55:21.999Z,8.57
2018-05-16T10:57:49.609Z,7.63
2018-05-16T11:00:17.683Z,8.07
2018-05-16T11:02:45.266Z,7.33
2018-05-16T11:05:12.878Z,6.83
2018-05-16T11:07:40.459Z,5.50
2018-05-16T11:10:08.103Z,4.40
2018-05-16T11:12:35.726Z,4.87
2018-05-16T11:15:04.095Z,4.20
2018-05-16T11:17:31.733Z,4.07
2018-05-16T11:19:59.330Z,5.23
2018-05-16T11:22:26.936Z,4.00
2018-05-16T11:24:54.529Z,3.70
2018-05-16T11:27:22.107Z,3.60
2018-05-16T11:29:49.745Z,4.10
2018-05-16T11:32:17.414Z,3.37
2018-05-16T11:34:49.973Z,3.57
2018-05-16T11:37:17.569Z,3.33
2018-05-16T11:39:45.144Z,4.13
2018-05-16T11:42:12.784Z,3.47
2018-05-16T11:44:40.397Z,3.77
2018-05-16T11:47:08.774Z,3.23
2018-05-16T11:49:36.393Z,3.53
2018-05-16T11:52:04.225Z,3.43
2018-05-16T11:54:31.814Z,3.93
2018-05-16T11:56:59.414Z,3.30
2018-05-16T11:59:27.030Z,3.30
2018-05-16T12:01:54.635Z,3.37
2018-05-16T12:04:22.213Z,3.07
2018-05-16T12:06:49.826Z,3.63
2018-05-16T12:09:17.555Z,3.70
2018-05-16T12:11:45.067Z,3.17
2018-05-16T12:14:12.645Z,3.00
2018-05-16T12:16:40.316Z,3.83
2018-05-16T12:19:07.919Z,3.00
2018-05-16T12:21:36.291Z,3.07
2018-05-16T12:24:04.651Z,3.50
2018-05-16T12:26:32.262Z,4.90
2018-05-16T12:28:59.928Z,3.23
2018-05-16T12:31:27.424Z,3.17
2018-05-16T12:33:55.024Z,3.60
2018-05-16T12:36:23.372Z,3.63
2018-05-16T12:38:51.131Z,3.43
2018-05-16T12:41:18.794Z,3.10
2018-05-16T12:43:47.170Z,3.07
2018-05-16T12:46:14.793Z,3.20
2018-05-16T12:48:43.164Z,3.13
2018-05-16T12:51:11.513Z,3.40
2018-05-16T12:53:39.102Z,3.27
2018-05-16T12:56:06.665Z,3.47
2018-05-16T12:58:34.260Z,3.93
2018-05-16T13:01:01.840Z,4.37
2018-05-16T13:03:29.947Z,4.00
2018-05-16T13:05:57.531Z,4.00
2018-05-16T13:08:25.179Z,4.10
2018-05-16T13:10:52.778Z,3.67
2018-05-16T13:13:20.394Z,3.63
2018-05-16T13:15:47.974Z,4.03
2018-05-16T13:18:15.561Z,3.77
2018-05-16T13:20:43.175Z,4.50
2018-05-16T13:23:10.938Z,3.80
2018-05-16T13:25:38.555Z,3.53
2018-05-16T13:28:06.160Z,4.13
2018-05-16T13:30:34.826Z,3.53
2018-05-16T13:33:02.453Z,4.07
2018-05-16T13:35:30.059Z,3.90
2018-05-16T13:37:57.638Z,3.80
2018-05-16T13:40:25.390Z,3.63
2018-05-16T13:42:52.997Z,4.03
2018-05-16T13:45:20.617Z,4.10
2018-05-16T13:47:48.192Z,3.97
2018-05-16T13:50:15.782Z,3.93
2018-05-16T13:52:43.346Z,4.07
2018-05-16T13:55:11.088Z,4.17
2018-05-16T13:57:39.921Z,3.87
2018-05-16T14:00:07.595Z,3.50
2018-05-16T14:02:35.721Z,3.87
2018-05-16T14:05:03.468Z,3.50
2018-05-16T14:07:31.097Z,4.07
2018-05-16T14:09:59.499Z,4.23
2018-05-16T14:12:27.532Z,3.53
2018-05-16T14:14:55.805Z,4.03
2018-05-16T14:17:23.417Z,3.67
2018-05-16T14:19:51.069Z,3.87
2018-05-16T14:22:18.691Z,3.90
2018-05-16T14:24:46.382Z,3.90
2018-05-16T14:27:14.093Z,4.20
2018-05-16T14:29:41.703Z,3.93
2018-05-16T14:32:09.374Z,4.13
2018-05-16T14:34:37.107Z,3.67
2018-05-16T14:37:04.935Z,4.20
2018-05-16T14:39:32.553Z,4.17
2018-05-16T14:42:00.977Z,3.70
2018-05-16T14:44:28.596Z,4.13
2018-05-16T14:46:56.228Z,4.27
2018-05-16T14:49:24.543Z,4.33
2018-05-16T14:51:52.198Z,4.13
2018-05-16T14:54:19.794Z,3.93
2018-05-16T14:56:48.180Z,3.97
2018-05-16T14:59:15.811Z,3.30
2018-05-16T15:01:43.429Z,4.10
2018-05-16T15:04:11.028Z,3.87
2018-05-16T15:06:38.625Z,3.20
2018-05-16T15:09:07.027Z,3.73
2018-05-16T15:11:36.186Z,3.60
2018-05-16T15:14:03.814Z,3.30
2018-05-16T15:16:31.397Z,3.90
2018-05-16T15:18:59.006Z,4.00
2018-05-16T15:21:26.666Z,3.43
2018-05-16T15:23:55.080Z,3.43
2018-05-16T15:26:22.843Z,3.73
2018-05-16T15:28:50.565Z,3.27
2018-05-16T15:31:18.179Z,3.50
2018-05-16T15:33:45.870Z,3.33
2018-05-16T15:36:13.479Z,3.43
2018-05-16T15:38:41.082Z,3.47
2018-05-16T15:41:08.709Z,2.90
2018-05-16T15:43:37.105Z,3.70
2018-05-16T15:46:06.485Z,3.37
2018-05-16T15:48:35.867Z,3.27
2018-05-16T15:51:03.493Z,3.20
2018-05-16T15:53:31.106Z,2.60
2018-05-16T15:55:58.767Z,3.37
2018-05-16T15:58:27.125Z,3.20
2018-05-16T16:00:54.783Z,2.80
2018-05-16T16:03:22.380Z,2.30
2018-05-16T16:05:50.036Z,3.17
2018-05-16T16:08:17.613Z,3.10
2018-05-16T16:10:45.719Z,2.60
2018-05-16T16:13:14.103Z,2.87
2018-05-16T16:15:41.673Z,2.77
2018-05-16T16:18:09.313Z,2.63
2018-05-16T16:20:37.685Z,2.83
2018-05-16T16:23:05.313Z,2.33
2018-05-16T16:25:32.947Z,2.60
2018-05-16T16:28:01.318Z,2.90
2018-05-16T16:30:29.717Z,3.07
2018-05-16T16:32:57.304Z,3.13
2018-05-16T16:35:25.064Z,3.00
2018-05-16T16:37:52.649Z,2.87
2018-05-16T16:40:20.238Z,2.60
2018-05-16T16:42:48.621Z,2.63
2018-05-16T16:45:17.078Z,2.50
2018-05-16T16:47:44.734Z,2.53
2018-05-16T16:50:13.222Z,2.90
2018-05-16T16:52:40.870Z,2.30
2018-05-16T16:55:08.510Z,3.43
2018-05-16T16:57:36.203Z,2.57
2018-05-16T17:00:03.883Z,2.50
2018-05-16T17:02:31.493Z,2.37
2018-05-16T17:04:59.162Z,2.53
2018-05-16T17:07:26.833Z,2.87
2018-05-16T17:09:54.486Z,3.07
2018-05-16T17:12:22.106Z,2.50
2018-05-16T17:14:49.785Z,2.40
2018-05-16T17:17:17.385Z,2.80
2018-05-16T17:19:45.181Z,3.03
2018-05-16T17:22:12.790Z,2.50
2018-05-16T17:24:41.170Z,2.57
2018-05-16T17:27:08.810Z,2.70
2018-05-16T17:29:37.190Z,2.27
2018-05-16T17:32:04.822Z,2.40
2018-05-16T17:34:32.429Z,2.70
2018-05-16T17:37:00.629Z,3.13
2018-05-16T17:39:28.267Z,2.87
2018-05-16T17:41:55.862Z,2.70
2018-05-16T17:44:24.233Z,3.47
2018-05-16T17:46:52.907Z,3.70
2018-05-16T17:49:20.978Z,2.90
2018-05-16T17:51:48.623Z,2.70
2018-05-16T17:54:16.210Z,2.70
2018-05-16T17:56:44.732Z,2.80
2018-05-16T17:59:12.291Z,3.27
2018-05-16T18:01:40.033Z,3.43
2018-05-16T18:04:08.513Z,2.70
2018-05-16T18:06:36.199Z,3.13
2018-05-16T18:09:03.798Z,2.80
2018-05-16T18:11:31.406Z,2.73
2018-05-16T18:14:10.875Z,2.87
2018-05-16T18:16:51.173Z,3.00
2018-05-16T18:19:18.879Z,2.87
2018-05-16T18:21:47.744Z,3.20
2018-05-16T18:24:16.253Z,2.97
2018-05-16T18:26:43.861Z,3.30
2018-05-16T18:29:11.448Z,2.70
2018-05-16T18:31:39.076Z,3.13
2018-05-16T18:34:06.677Z,2.73
2018-05-16T18:36:34.286Z,2.70
2018-05-16T18:39:01.973Z,2.90
2018-05-16T18:41:29.718Z,2.73
2018-05-16T18:43:58.087Z,2.80
2018-05-16T18:46:26.395Z,2.70
2018-05-16T18:48:55.414Z,3.23
2018-05-16T18:51:23.033Z,2.93
2018-05-16T18:53:50.653Z,2.77
2018-05-16T18:56:18.237Z,3.07
2018-05-16T18:58:47.474Z,3.07
2018-05-16T19:01:15.825Z,2.80
2018-05-16T19:03:43.460Z,3.40
2018-05-16T19:06:11.056Z,2.73
2018-05-16T19:08:38.723Z,2.60
2018-05-16T19:11:07.109Z,3.60
2018-05-16T19:13:34.849Z,3.73
2018-05-16T19:16:02.479Z,3.50
2018-05-16T19:18:30.217Z,4.00
2018-05-16T19:20:57.980Z,3.10
2018-05-16T19:23:26.347Z,3.20
2018-05-16T19:25:54.083Z,3.50
2018-05-16T19:28:22.471Z,3.03
2018-05-16T19:30:50.162Z,3.40
2018-05-16T19:33:17.833Z,3.77
2018-05-16T19:35:46.182Z,3.80
2018-05-16T19:38:15.202Z,3.30
2018-05-16T19:40:42.904Z,3.67
2018-05-16T19:43:11.271Z,3.50
2018-05-16T19:45:39.949Z,3.27
2018-05-16T19:48:08.331Z,4.03
2018-05-16T19:50:36.789Z,3.27
2018-05-16T19:53:04.452Z,3.50
2018-05-16T19:55:32.608Z,4.03
2018-05-16T19:58:00.562Z,3.80
2018-05-16T20:00:28.253Z,3.73
2018-05-16T20:02:56.962Z,4.40
2018-05-16T20:05:24.594Z,4.23
2018-05-16T20:07:52.169Z,4.47
2018-05-16T20:10:19.776Z,4.17
2018-05-16T20:12:48.179Z,3.77
2018-05-16T20:15:15.910Z,3.77
2018-05-16T20:17:43.605Z,3.80
2018-05-16T20:20:11.198Z,3.43
2018-05-16T20:22:39.932Z,4.33
2018-05-16T20:25:07.715Z,3.90
2018-05-16T20:27:35.361Z,3.77
2018-05-16T20:30:03.044Z,3.90
2018-05-16T20:32:30.627Z,4.17
2018-05-16T20:34:58.323Z,4.07
2018-05-16T20:37:25.971Z,3.57
2018-05-16T20:39:54.045Z,3.83
2018-05-16T20:42:22.390Z,4.03
2018-05-16T20:44:53.258Z,3.57
2018-05-16T20:47:21.074Z,4.30
2018-05-16T20:49:48.853Z,4.10
2018-05-16T20:52:18.129Z,3.50
2018-05-16T20:54:47.020Z,3.90
2018-05-16T20:57:14.776Z,3.67
2018-05-16T20:59:42.426Z,2.83
2018-05-16T21:02:10.072Z,3.80
2018-05-16T21:04:37.798Z,3.60
2018-05-16T21:07:06.183Z,3.20
2018-05-16T21:09:33.864Z,3.43
2018-05-16T21:12:01.865Z,3.13
2018-05-16T21:14:29.641Z,3.57
2018-05-16T21:16:57.383Z,4.03
2018-05-16T21:19:25.902Z,3.47
2018-05-16T21:21:53.622Z,2.77
2018-05-16T21:24:22.225Z,3.83
2018-05-16T21:26:50.971Z,3.13
2018-05-16T21:29:19.737Z,3.33
2018-05-16T21:31:47.372Z,3.83
2018-05-16T21:34:14.991Z,3.33
2018-05-16T21:36:42.617Z,3.80
2018-05-16T21:39:10.397Z,3.27
2018-05-16T21:41:38.191Z,3.77
2018-05-16T21:44:05.841Z,4.00
2018-05-16T21:46:33.748Z,3.40
2018-05-16T21:49:02.205Z,3.23
2018-05-16T21:51:31.045Z,3.63
2018-05-16T21:53:58.781Z,3.40
2018-05-16T21:56:26.709Z,3.50
2018-05-16T21:58:54.402Z,3.40
2018-05-16T22:01:22.094Z,3.20
2018-05-16T22:03:49.713Z,3.50
2018-05-16T22:06:17.377Z,3.40
2018-05-16T22:08:45.218Z,4.23
2018-05-16T22:11:13.618Z,3.80
2018-05-16T22:13:43.213Z,3.80
2018-05-16T22:16:11.609Z,3.87
2018-05-16T22:18:39.253Z,4.23
2018-05-16T22:21:07.739Z,3.90
2018-05-16T22:23:37.296Z,3.27
2018-05-16T22:26:04.980Z,3.90
2018-05-16T22:28:33.065Z,3.87
2018-05-16T22:31:06.538Z,4.10
2018-05-16T22:33:40.042Z,4.30
2018-05-16T22:36:14.659Z,4.37
2018-05-16T22:38:47.984Z,4.43
2018-05-16T22:41:21.386Z,3.63
2018-05-16T22:43:55.475Z,4.00
2018-05-16T22:46:24.258Z,4.10
2018-05-16T22:48:51.973Z,3.60
2018-05-16T22:51:19.590Z,3.57
2018-05-16T22:53:48.436Z,4.17
2018-05-16T22:56:16.216Z,4.50
2018-05-16T22:58:44.825Z,3.73
2018-05-16T23:01:12.451Z,4.07
2018-05-16T23:03:40.190Z,5.23
2018-05-16T23:06:07.841Z,4.43
2018-05-16T23:08:35.612Z,4.00
2018-05-16T23:11:03.362Z,3.93
2018-05-16T23:13:31.025Z,4.00
2018-05-16T23:15:58.738Z,3.77
2018-05-16T23:18:26.310Z,3.57
2018-05-16T23:20:53.950Z,3.83
2018-05-16T23:23:21.652Z,3.80
2018-05-16T23:25:49.264Z,4.30
2018-05-16T23:28:16.925Z,4.20
2018-05-16T23:30:46.082Z,4.30
2018-05-16T23:33:13.626Z,4.03
2018-05-16T23:35:42.181Z,3.60
2018-05-16T23:38:09.807Z,4.67
2018-05-16T23:40:38.042Z,4.30
2018-05-16T23:43:05.699Z,4.10
2018-05-16T23:45:33.454Z,4.27
2018-05-16T23:48:01.215Z,3.83
2018-05-16T23:50:28.839Z,4.07
2018-05-16T23:52:56.476Z,4.43
2018-05-16T23:55:25.265Z,4.03
2018-05-16T23:57:52.905Z,4.07
